createdAt,value
2023-04-04T00:02:16.007Z,60.84
2023-04-04T00:04:47.839Z,61.15
2023-04-04T00:07:19.807Z,61.44
2023-04-04T00:09:52.273Z,61.24
2023-04-04T00:12:26.589Z,60.93
2023-04-04T00:15:00.417Z,60.71
2023-04-04T00:17:32.527Z,61.20
2023-04-04T00:20:04.768Z,61.80
2023-04-04T00:22:36.913Z,61.33
2023-04-04T00:25:09.772Z,61.49
2023-04-04T00:27:41.752Z,61.79
2023-04-04T00:30:15.780Z,62.19
2023-04-04T00:32:47.630Z,62.18
2023-04-04T00:35:20.020Z,62.48
2023-04-04T00:37:52.291Z,63.48
2023-04-04T00:40:24.387Z,63.40
2023-04-04T00:42:57.521Z,63.54
2023-04-04T00:45:29.798Z,64.30
2023-04-04T00:48:03.014Z,64.13
2023-04-04T00:50:35.500Z,64.13
2023-04-04T00:53:07.436Z,64.77
2023-04-04T00:55:43.357Z,65.04
2023-04-04T00:58:15.448Z,65.61
2023-04-04T01:00:47.514Z,65.84
2023-04-04T01:03:20.046Z,65.89
2023-04-04T01:05:52.357Z,66.11
2023-04-04T01:08:27.101Z,66.53
2023-04-04T01:10:59.584Z,66.76
2023-04-04T01:13:33.242Z,66.80
2023-04-04T01:16:05.416Z,66.92
2023-04-04T01:18:39.540Z,67.17
2023-04-04T01:21:14.393Z,67.38
2023-04-04T01:23:53.018Z,67.47
2023-04-04T01:26:27.167Z,68.01
2023-04-04T01:29:01.701Z,67.60
2023-04-04T01:31:39.780Z,67.53
2023-04-04T01:34:29.537Z,67.16
2023-04-04T01:37:04.971Z,66.76
2023-04-04T01:39:48.053Z,66.92
2023-04-04T01:42:21.403Z,66.64
2023-04-04T01:44:59.084Z,66.86
2023-04-04T01:47:42.544Z,66.69
2023-04-04T01:50:19.094Z,66.94
2023-04-04T01:52:51.438Z,67.33
2023-04-04T01:55:23.578Z,66.49
2023-04-04T01:57:55.620Z,66.45
2023-04-04T02:00:27.851Z,66.30
2023-04-04T02:03:00.365Z,66.33
2023-04-04T02:05:32.149Z,65.98
2023-04-04T02:08:06.361Z,65.46
2023-04-04T02:10:44.701Z,66.08
2023-04-04T02:13:16.818Z,65.94
2023-04-04T02:15:49.385Z,66.03
2023-04-04T02:18:21.376Z,65.93
2023-04-04T02:20:58.866Z,65.35
2023-04-04T02:23:30.861Z,65.48
2023-04-04T02:26:03.669Z,65.13
2023-04-04T02:28:35.575Z,63.81
2023-04-04T02:31:07.534Z,63.36
2023-04-04T02:33:39.517Z,63.40
2023-04-04T02:36:12.509Z,64.31
2023-04-04T02:38:44.595Z,62.43
2023-04-04T02:41:16.970Z,62.34
2023-04-04T02:43:49.680Z,63.66
2023-04-04T02:46:23.435Z,63.71
2023-04-04T02:49:01.960Z,62.55
2023-04-04T02:51:34.653Z,62.36
2023-04-04T02:54:06.955Z,61.64
2023-04-04T02:56:43.956Z,61.35
2023-04-04T02:59:15.921Z,61.51
2023-04-04T03:01:47.869Z,60.86
2023-04-04T03:04:20.354Z,60.51
2023-04-04T03:06:52.431Z,60.94
2023-04-04T03:09:25.407Z,60.52
2023-04-04T03:11:57.266Z,60.68
2023-04-04T03:14:29.967Z,60.47
2023-04-04T03:17:02.578Z,59.97
2023-04-04T03:19:33.573Z,60.20
2023-04-04T03:22:05.454Z,60.56
2023-04-04T03:24:39.322Z,60.59
2023-04-04T03:27:13.058Z,60.54
2023-04-04T03:29:44.957Z,60.88
2023-04-04T03:32:18.303Z,61.50
2023-04-04T03:34:53.058Z,60.74
2023-04-04T03:37:25.279Z,60.82
2023-04-04T03:39:57.099Z,60.87
2023-04-04T03:42:29.039Z,60.84
2023-04-04T03:45:04.142Z,61.29
2023-04-04T03:47:37.805Z,61.34
2023-04-04T03:50:12.407Z,61.85
2023-04-04T03:52:49.632Z,62.24
2023-04-04T03:55:21.623Z,62.78
2023-04-04T03:57:54.850Z,63.62
2023-04-04T04:00:27.301Z,64.10
2023-04-04T04:02:59.794Z,65.15
2023-04-04T04:05:31.682Z,66.17
2023-04-04T04:08:03.586Z,66.50
2023-04-04T04:10:37.302Z,67.75
2023-04-04T04:13:09.381Z,68.48
2023-04-04T04:15:41.916Z,68.47
2023-04-04T04:18:16.795Z,68.73
2023-04-04T04:20:48.706Z,69.48
2023-04-04T04:23:20.827Z,69.93
2023-04-04T04:25:54.396Z,70.80
2023-04-04T04:28:33.411Z,71.36
2023-04-04T04:31:10.063Z,72.05
2023-04-04T04:33:47.540Z,73.18
2023-04-04T04:36:20.614Z,73.92
2023-04-04T04:39:01.002Z,74.44
2023-04-04T04:41:35.476Z,75.05
2023-04-04T04:44:08.250Z,75.38
2023-04-04T04:46:40.832Z,75.88
2023-04-04T04:49:17.202Z,76.49
2023-04-04T04:51:49.119Z,76.99
2023-04-04T04:54:21.737Z,77.06
2023-04-04T04:56:58.189Z,77.31
2023-04-04T04:59:31.070Z,76.98
2023-04-04T05:02:04.624Z,77.00
2023-04-04T05:04:39.048Z,77.19
2023-04-04T05:07:12.336Z,77.01
2023-04-04T05:09:44.820Z,77.23
2023-04-04T05:12:18.114Z,77.14
2023-04-04T05:14:51.944Z,77.08
2023-04-04T05:17:24.284Z,77.75
2023-04-04T05:19:58.800Z,76.94
2023-04-04T05:22:32.307Z,77.02
2023-04-04T05:25:06.248Z,77.06
2023-04-04T05:27:38.640Z,77.44
2023-04-04T05:30:12.506Z,77.06
2023-04-04T05:32:53.538Z,77.24
2023-04-04T05:35:29.686Z,76.98
2023-04-04T05:38:03.065Z,77.23
2023-04-04T05:40:36.990Z,77.41
2023-04-04T05:43:13.515Z,76.77
2023-04-04T05:45:54.714Z,76.81
2023-04-04T05:48:27.696Z,76.61
2023-04-04T05:50:59.620Z,76.47
2023-04-04T05:53:52.257Z,76.10
2023-04-04T05:56:28.836Z,75.77
2023-04-04T05:59:02.322Z,75.86
2023-04-04T06:01:36.093Z,75.04
2023-04-04T06:04:14.953Z,74.94
2023-04-04T06:06:48.096Z,73.86
2023-04-04T06:09:20.412Z,74.06
2023-04-04T06:11:52.660Z,73.67
2023-04-04T06:14:24.763Z,73.54
2023-04-04T06:16:57.662Z,73.26
2023-04-04T06:19:30.960Z,73.69
2023-04-04T06:22:03.359Z,73.47
2023-04-04T06:24:38.184Z,72.99
2023-04-04T06:27:10.795Z,72.67
2023-04-04T06:29:42.764Z,71.54
2023-04-04T06:32:15.857Z,70.96
2023-04-04T06:34:49.424Z,71.30
2023-04-04T06:37:25.381Z,71.65
2023-04-04T06:40:04.260Z,71.73
2023-04-04T06:42:36.370Z,70.15
2023-04-04T06:45:11.648Z,69.17
2023-04-04T06:47:43.862Z,68.84
2023-04-04T06:50:16.997Z,68.73
2023-04-04T06:52:50.096Z,68.09
2023-04-04T06:55:23.427Z,67.32
2023-04-04T06:57:55.554Z,66.78
2023-04-04T07:00:30.488Z,66.37
2023-04-04T07:03:03.936Z,65.33
2023-04-04T07:05:39.400Z,64.94
2023-04-04T07:08:11.767Z,64.60
2023-04-04T07:10:44.010Z,64.36
2023-04-04T07:13:16.836Z,65.03
2023-04-04T07:15:50.221Z,65.71
2023-04-04T07:18:22.072Z,65.60
2023-04-04T07:20:54.113Z,64.44
2023-04-04T07:23:26.221Z,64.71
2023-04-04T07:25:58.112Z,64.82
2023-04-04T07:28:30.074Z,63.94
2023-04-04T07:31:03.602Z,62.71
2023-04-04T07:33:35.819Z,61.08
2023-04-04T07:36:08.471Z,57.53
2023-04-04T07:38:38.789Z,58.53
2023-04-04T07:41:11.857Z,59.03
2023-04-04T07:43:43.896Z,58.11
2023-04-04T07:46:16.657Z,59.00
2023-04-04T07:48:49.069Z,58.34
2023-04-04T07:51:28.265Z,57.58
2023-04-04T07:54:01.770Z,57.13
2023-04-04T07:56:33.878Z,56.82
2023-04-04T07:59:05.841Z,56.35
2023-04-04T08:01:38.252Z,56.19
2023-04-04T08:04:11.465Z,56.26
2023-04-04T08:06:43.562Z,56.07
2023-04-04T08:09:16.149Z,55.47
2023-04-04T08:11:48.423Z,55.72
2023-04-04T08:14:20.556Z,56.18
2023-04-04T08:16:52.640Z,55.59
2023-04-04T08:19:24.685Z,55.23
2023-04-04T08:21:56.689Z,54.85
2023-04-04T08:24:28.734Z,55.73
2023-04-04T08:27:05.086Z,55.37
2023-04-04T08:29:37.973Z,55.02
2023-04-04T08:32:10.230Z,52.77
2023-04-04T08:34:42.359Z,52.88
2023-04-04T08:37:14.721Z,53.64
2023-04-04T08:39:46.844Z,53.76
2023-04-04T08:42:22.225Z,53.46
2023-04-04T08:44:58.771Z,53.72
2023-04-04T08:47:32.505Z,54.21
2023-04-04T08:50:07.418Z,54.26
2023-04-04T08:52:41.645Z,54.00
2023-04-04T08:55:15.267Z,52.50
2023-04-04T08:57:47.882Z,52.48
2023-04-04T09:00:21.565Z,53.70
2023-04-04T09:03:03.012Z,53.34
2023-04-04T09:05:35.678Z,52.71
2023-04-04T09:08:08.400Z,52.93
2023-04-04T09:10:39.284Z,53.04
2023-04-04T09:13:15.953Z,53.15
2023-04-04T09:15:54.255Z,53.27
2023-04-04T09:18:26.500Z,53.60
2023-04-04T09:20:59.059Z,53.65
2023-04-04T09:23:31.016Z,53.95
2023-04-04T09:26:04.497Z,54.46
2023-04-04T09:28:37.857Z,54.02
2023-04-04T09:31:12.747Z,54.71
2023-04-04T09:33:44.999Z,53.24
2023-04-04T09:36:18.926Z,52.48
2023-04-04T09:38:56.434Z,52.34
2023-04-04T09:41:30.166Z,52.56
2023-04-04T09:44:01.584Z,53.04
2023-04-04T09:46:35.799Z,52.98
2023-04-04T09:49:15.069Z,53.42
2023-04-04T09:51:54.653Z,53.65
2023-04-04T09:54:30.762Z,53.44
2023-04-04T09:57:03.676Z,53.09
2023-04-04T09:59:35.145Z,51.82
2023-04-04T10:02:13.708Z,51.65
2023-04-04T10:05:03.451Z,51.78
2023-04-04T10:07:42.304Z,51.57
2023-04-04T10:10:17.578Z,51.76
2023-04-04T10:12:49.596Z,51.40
2023-04-04T10:15:25.843Z,51.37
2023-04-04T10:17:59.025Z,50.70
2023-04-04T10:20:33.229Z,50.13
2023-04-04T10:23:06.945Z,51.07
2023-04-04T10:25:40.787Z,51.09
2023-04-04T10:28:16.679Z,50.32
2023-04-04T10:31:06.179Z,50.33
2023-04-04T10:33:47.711Z,51.52
2023-04-04T10:36:24.254Z,51.07
2023-04-04T10:39:04.876Z,50.72
2023-04-04T10:41:39.164Z,49.73
2023-04-04T10:44:21.874Z,50.02
2023-04-04T10:46:56.203Z,49.51
2023-04-04T10:49:31.835Z,49.46
2023-04-04T10:52:04.284Z,49.40
2023-04-04T10:54:37.253Z,48.71
2023-04-04T10:57:09.534Z,48.98
2023-04-04T10:59:58.716Z,48.48
2023-04-04T11:02:55.585Z,47.30
2023-04-04T11:05:32.834Z,47.50
2023-04-04T11:08:09.751Z,48.15
2023-04-04T11:10:45.313Z,48.74
2023-04-04T11:13:22.034Z,48.51
2023-04-04T11:15:59.959Z,48.43
2023-04-04T11:18:50.973Z,47.75
2023-04-04T11:21:32.890Z,46.05
2023-04-04T11:24:17.685Z,46.15
2023-04-04T11:26:49.771Z,46.77
2023-04-04T11:29:54.004Z,46.04
2023-04-04T11:32:45.793Z,46.20
2023-04-04T11:35:22.392Z,46.36
2023-04-04T11:38:04.424Z,46.79
2023-04-04T11:40:53.722Z,46.60
2023-04-04T11:43:27.260Z,46.97
2023-04-04T11:46:10.887Z,46.66
2023-04-04T11:48:42.927Z,47.03
2023-04-04T11:51:17.514Z,47.46
2023-04-04T11:53:49.655Z,47.88
2023-04-04T11:56:22.498Z,46.91
2023-04-04T11:59:08.601Z,45.88
2023-04-04T12:01:44.865Z,45.28
2023-04-04T12:04:18.173Z,44.08
2023-04-04T12:06:57.764Z,44.78
2023-04-04T12:09:31.063Z,44.53
2023-04-04T12:12:01.468Z,44.17
2023-04-04T12:14:35.228Z,44.69
2023-04-04T12:17:07.387Z,44.92
2023-04-04T12:19:41.489Z,45.32
2023-04-04T12:22:13.629Z,45.48
2023-04-04T12:24:45.877Z,45.39
2023-04-04T12:27:17.170Z,45.17
2023-04-04T12:29:50.659Z,45.58
2023-04-04T12:32:23.702Z,45.19
2023-04-04T12:35:01.031Z,44.95
2023-04-04T12:37:34.370Z,45.38
2023-04-04T12:40:05.508Z,45.41
2023-04-04T12:42:38.204Z,45.33
2023-04-04T12:45:11.738Z,45.09
2023-04-04T12:47:54.442Z,45.11
2023-04-04T12:56:11.957Z,45.90
2023-04-04T12:58:50.990Z,45.86
2023-04-04T13:01:25.127Z,45.68
2023-04-04T13:03:57.363Z,45.34
2023-04-04T13:06:31.894Z,44.40
2023-04-04T13:09:07.566Z,44.03
2023-04-04T13:12:00.255Z,42.92
2023-04-04T13:15:00.248Z,42.73
2023-04-04T13:17:46.383Z,43.18
2023-04-04T13:20:21.060Z,42.57
2023-04-04T13:22:59.405Z,42.87
2023-04-04T13:25:33.932Z,42.97
2023-04-04T13:28:06.485Z,43.76
2023-04-04T13:30:38.668Z,42.99
2023-04-04T13:33:11.252Z,42.66
2023-04-04T13:35:43.244Z,42.36
2023-04-04T13:38:15.254Z,41.32
2023-04-04T13:40:47.490Z,40.80
2023-04-04T13:43:19.957Z,41.41
2023-04-04T13:45:55.577Z,41.46
2023-04-04T13:48:29.320Z,41.19
2023-04-04T13:51:01.419Z,40.63
2023-04-04T13:53:33.391Z,40.46
2023-04-04T13:58:50.462Z,40.69
2023-04-04T14:01:25.856Z,40.44
2023-04-04T14:03:58.654Z,39.25
2023-04-04T14:06:31.870Z,39.76
2023-04-04T14:09:44.171Z,38.67
2023-04-04T14:13:02.595Z,38.87
2023-04-04T14:15:35.339Z,38.81
2023-04-04T14:18:07.902Z,37.95
2023-04-04T14:20:40.319Z,38.04
2023-04-04T14:23:12.569Z,38.87
2023-04-04T14:26:18.828Z,38.68
2023-04-04T14:28:52.239Z,38.70
2023-04-04T14:31:49.172Z,38.54
2023-04-04T14:34:26.966Z,38.59
2023-04-04T14:37:00.206Z,38.91
2023-04-04T14:39:30.957Z,38.83
2023-04-04T14:42:03.091Z,38.88
2023-04-04T14:44:38.279Z,39.32
2023-04-04T14:47:10.545Z,39.50
2023-04-04T14:49:43.084Z,40.49
2023-04-04T14:52:14.945Z,39.97
2023-04-04T14:54:47.516Z,39.92
2023-04-04T14:57:18.313Z,39.36
2023-04-04T14:59:51.779Z,40.21
2023-04-04T15:02:24.004Z,39.81
2023-04-04T15:05:07.569Z,40.05
2023-04-04T15:07:39.818Z,41.76
2023-04-04T15:10:19.271Z,41.44
2023-04-04T15:12:52.456Z,41.10
2023-04-04T15:15:24.536Z,41.34
2023-04-04T15:17:58.227Z,41.02
2023-04-04T15:20:34.347Z,40.54
2023-04-04T15:23:06.590Z,40.90
2023-04-04T15:25:51.478Z,41.21
2023-04-04T15:28:24.394Z,42.11
2023-04-04T15:30:57.584Z,41.82
2023-04-04T15:33:29.730Z,41.56
2023-04-04T15:36:01.715Z,41.92
2023-04-04T15:38:36.095Z,42.59
2023-04-04T15:41:12.234Z,42.40
2023-04-04T15:43:44.640Z,42.11
2023-04-04T15:46:16.707Z,41.87
2023-04-04T15:48:51.871Z,41.42
2023-04-04T15:51:27.932Z,41.49
2023-04-04T15:54:00.294Z,41.62
2023-04-04T15:56:32.442Z,41.32
2023-04-04T15:59:04.024Z,42.15
2023-04-04T16:01:37.671Z,41.78
2023-04-04T16:04:10.367Z,41.14
2023-04-04T16:06:43.876Z,41.08
2023-04-04T16:09:16.757Z,41.09
2023-04-04T16:11:47.125Z,41.10
2023-04-04T16:14:19.033Z,41.25
2023-04-04T16:16:53.089Z,40.94
2023-04-04T16:19:26.402Z,40.96
2023-04-04T16:21:58.883Z,41.57
2023-04-04T16:24:40.348Z,41.02
2023-04-04T16:27:13.124Z,41.40
2023-04-04T16:29:45.997Z,41.01
2023-04-04T16:32:21.171Z,40.66
2023-04-04T16:34:57.237Z,41.45
2023-04-04T16:37:29.375Z,41.45
2023-04-04T16:40:02.162Z,41.11
2023-04-04T16:42:34.519Z,39.59
2023-04-04T16:45:10.425Z,39.68
2023-04-04T16:47:42.288Z,39.38
2023-04-04T16:50:16.561Z,39.90
2023-04-04T16:52:48.958Z,40.38
2023-04-04T16:55:21.953Z,41.52
2023-04-04T16:57:53.852Z,41.69
2023-04-04T17:00:26.151Z,41.59
2023-04-04T17:02:58.310Z,41.93
2023-04-04T17:05:30.925Z,41.17
2023-04-04T17:08:02.149Z,41.44
2023-04-04T17:10:34.414Z,41.84
2023-04-04T17:13:06.406Z,41.56
2023-04-04T17:15:39.527Z,42.52
2023-04-04T17:18:11.300Z,43.28
2023-04-04T17:20:43.585Z,43.48
2023-04-04T17:23:15.885Z,43.24
2023-04-04T17:25:47.962Z,43.50
2023-04-04T17:28:20.458Z,44.52
2023-04-04T17:30:53.561Z,43.43
2023-04-04T17:33:26.926Z,43.53
2023-04-04T17:35:59.262Z,42.85
2023-04-04T17:38:31.802Z,43.90
2023-04-04T17:41:04.478Z,43.35
2023-04-04T17:43:38.614Z,43.36
2023-04-04T17:46:10.520Z,43.45
2023-04-04T17:48:42.921Z,44.10
2023-04-04T17:51:13.841Z,44.72
2023-04-04T17:53:47.216Z,44.78
2023-04-04T17:56:19.447Z,44.30
2023-04-04T17:58:52.075Z,44.38
2023-04-04T18:01:25.959Z,44.81
2023-04-04T18:03:58.303Z,45.73
2023-04-04T18:06:30.598Z,45.66
2023-04-04T18:09:02.530Z,45.96
2023-04-04T18:11:36.951Z,45.63
2023-04-04T18:14:09.780Z,45.79
2023-04-04T18:16:42.537Z,45.53
2023-04-04T18:19:14.824Z,45.96
2023-04-04T18:21:49.739Z,45.93
2023-04-04T18:24:22.336Z,46.06
2023-04-04T18:26:54.852Z,47.10
2023-04-04T18:29:27.188Z,47.54
2023-04-04T18:32:03.830Z,46.93
2023-04-04T18:34:36.387Z,47.22
2023-04-04T18:37:08.306Z,47.20
2023-04-04T18:39:40.637Z,47.51
2023-04-04T18:42:13.166Z,48.44
2023-04-04T18:44:45.477Z,49.05
2023-04-04T18:47:18.251Z,49.76
2023-04-04T18:49:53.380Z,50.29
2023-04-04T18:52:25.258Z,50.21
2023-04-04T18:54:57.022Z,50.60
2023-04-04T18:57:28.840Z,49.22
2023-04-04T19:00:00.888Z,50.04
2023-04-04T19:02:34.139Z,49.38
2023-04-04T19:05:08.601Z,49.58
2023-04-04T19:07:41.993Z,49.32
2023-04-04T19:10:14.631Z,50.19
2023-04-04T19:12:44.911Z,50.04
2023-04-04T19:15:17.064Z,50.89
2023-04-04T19:17:50.317Z,50.68
2023-04-04T19:20:22.396Z,50.32
2023-04-04T19:22:54.788Z,50.12
2023-04-04T19:25:27.472Z,50.04
2023-04-04T19:28:01.172Z,51.07
2023-04-04T19:30:48.758Z,50.48
2023-04-04T19:33:22.139Z,51.78
2023-04-04T19:35:58.606Z,51.72
2023-04-04T19:38:33.151Z,50.97
2023-04-04T19:41:12.005Z,51.27
2023-04-04T19:43:46.279Z,50.95
2023-04-04T19:46:25.431Z,51.28
2023-04-04T19:48:58.945Z,51.54
2023-04-04T19:51:49.715Z,51.67
2023-04-04T19:54:30.930Z,50.91
2023-04-04T19:57:06.376Z,51.19
2023-04-04T19:59:56.558Z,50.92
2023-04-04T20:02:49.591Z,51.25
2023-04-04T20:05:57.853Z,52.35
2023-04-04T20:08:37.374Z,52.21
2023-04-04T20:11:09.621Z,51.21
2023-04-04T20:13:44.189Z,51.53
2023-04-04T20:16:17.434Z,52.17
2023-04-04T20:18:49.349Z,52.60
2023-04-04T20:21:22.988Z,51.86
2023-04-04T20:23:57.760Z,51.94
2023-04-04T20:26:54.975Z,51.22
2023-04-04T20:29:28.950Z,51.73
2023-04-04T20:32:02.386Z,51.89
2023-04-04T20:34:39.190Z,51.50
2023-04-04T20:37:16.185Z,52.70
2023-04-04T20:39:53.454Z,52.90
2023-04-04T20:42:40.740Z,52.18
2023-04-04T20:45:46.796Z,52.50
2023-04-04T20:48:37.613Z,53.54
2023-04-04T20:51:25.720Z,53.86
2023-04-04T20:53:58.942Z,53.86
2023-04-04T20:56:44.759Z,54.83
2023-04-04T20:59:36.777Z,56.30
2023-04-04T21:02:18.375Z,56.51
2023-04-04T21:04:52.140Z,56.73
2023-04-04T21:07:43.516Z,56.46
2023-04-04T21:10:44.556Z,56.11
2023-04-04T21:13:17.302Z,56.39
2023-04-04T21:15:49.776Z,57.75
2023-04-04T21:18:28.059Z,58.57
2023-04-04T21:21:17.144Z,58.49
2023-04-04T21:23:53.636Z,57.49
2023-04-04T21:26:31.927Z,56.92
2023-04-04T21:29:05.662Z,56.50
2023-04-04T21:31:39.485Z,57.41
2023-04-04T21:34:14.204Z,56.97
2023-04-04T21:36:46.894Z,57.36
2023-04-04T21:39:23.816Z,58.17
2023-04-04T21:41:57.990Z,58.60
2023-04-04T21:44:30.857Z,59.43
2023-04-04T21:47:02.641Z,59.67
2023-04-04T21:49:34.346Z,60.62
2023-04-04T21:52:06.243Z,60.49
2023-04-04T21:54:37.959Z,60.72
2023-04-04T21:57:10.241Z,60.64
2023-04-04T21:59:42.029Z,60.05
2023-04-04T22:02:14.016Z,59.43
2023-04-04T22:04:45.834Z,59.27
2023-04-04T22:07:17.698Z,59.88
2023-04-04T22:09:52.848Z,59.16
2023-04-04T22:12:24.632Z,59.30
2023-04-04T22:14:58.613Z,59.77
2023-04-04T22:17:30.464Z,59.56
2023-04-04T22:20:11.045Z,60.25
2023-04-04T22:22:43.584Z,59.81
2023-04-04T22:25:15.649Z,59.80
2023-04-04T22:27:49.709Z,59.66
2023-04-04T22:30:22.400Z,60.24
2023-04-04T22:32:52.905Z,59.32
2023-04-04T22:35:24.844Z,59.27
2023-04-04T22:38:00.924Z,59.01
2023-04-04T22:40:34.781Z,59.34
2023-04-04T22:43:06.884Z,59.10
2023-04-04T22:45:38.886Z,58.73
2023-04-04T22:48:11.270Z,57.98
2023-04-04T22:50:44.654Z,58.60
2023-04-04T22:53:16.360Z,58.09
2023-04-04T22:55:48.054Z,57.61
2023-04-04T22:58:21.833Z,58.29
2023-04-04T23:00:53.856Z,58.42
2023-04-04T23:03:25.612Z,59.02
2023-04-04T23:05:57.311Z,60.28
2023-04-04T23:08:29.169Z,60.31
2023-04-04T23:11:00.903Z,60.71
2023-04-04T23:13:34.596Z,60.78
2023-04-04T23:16:07.045Z,60.99
2023-04-04T23:18:38.748Z,61.68
2023-04-04T23:21:10.809Z,61.66
2023-04-04T23:23:42.876Z,62.41
2023-04-04T23:26:14.858Z,63.15
2023-04-04T23:28:46.661Z,62.92
2023-04-04T23:31:20.281Z,62.78
2023-04-04T23:33:52.062Z,62.84
2023-04-04T23:36:24.327Z,63.48
2023-04-04T23:38:56.081Z,62.66
2023-04-04T23:41:28.016Z,63.12
2023-04-04T23:43:59.832Z,63.26
2023-04-04T23:46:33.110Z,63.81
2023-04-04T23:49:05.135Z,64.23
2023-04-04T23:51:38.881Z,63.64
2023-04-04T23:54:13.736Z,63.48
2023-04-04T23:56:45.603Z,63.90
2023-04-04T23:59:17.729Z,64.08
